createdAt,value
2022-08-03T00:00:48.480Z,100.00
2022-08-03T00:03:18.013Z,100.00
2022-08-03T00:06:04.648Z,100.00
2022-08-03T00:08:40.068Z,100.00
2022-08-03T00:11:12.498Z,100.00
2022-08-03T00:13:41.946Z,100.00
2022-08-03T00:16:11.651Z,100.00
2022-08-03T00:18:41.068Z,100.00
2022-08-03T00:21:10.702Z,100.00
2022-08-03T00:23:51.419Z,100.00
2022-08-03T00:26:24.934Z,100.00
2022-08-03T00:28:54.406Z,100.00
2022-08-03T00:31:40.108Z,100.00
2022-08-03T00:34:13.414Z,100.00
2022-08-03T00:36:43.053Z,100.00
2022-08-03T00:39:12.493Z,100.00
2022-08-03T00:41:44.571Z,100.00
2022-08-03T00:44:14.017Z,100.00
2022-08-03T00:46:43.506Z,100.00
2022-08-03T00:49:13.072Z,100.00
2022-08-03T00:51:42.805Z,100.00
2022-08-03T00:54:12.983Z,100.00
2022-08-03T00:56:59.568Z,100.00
2022-08-03T00:59:30.122Z,100.00
2022-08-03T01:01:59.861Z,100.00
2022-08-03T01:04:29.354Z,100.00
2022-08-03T01:07:11.072Z,100.00
2022-08-03T01:09:47.460Z,100.00
2022-08-03T01:12:28.047Z,100.00
2022-08-03T01:15:05.477Z,100.00
2022-08-03T01:17:39.761Z,100.00
2022-08-03T01:20:13.715Z,100.00
2022-08-03T01:23:03.480Z,100.00
2022-08-03T01:25:43.446Z,100.00
2022-08-03T01:28:28.807Z,100.00
2022-08-03T01:31:06.653Z,100.00
2022-08-03T01:33:39.856Z,100.00
2022-08-03T01:36:15.533Z,100.00
2022-08-03T01:38:50.380Z,100.00
2022-08-03T01:41:23.907Z,100.00
2022-08-03T01:44:29.478Z,100.00
2022-08-03T01:46:51.470Z,100.00
2022-08-03T01:49:21.520Z,100.00
2022-08-03T01:52:04.199Z,100.00
2022-08-03T01:54:38.949Z,100.00
2022-08-03T01:57:09.369Z,100.00
2022-08-03T01:59:40.291Z,100.00
2022-08-03T02:02:33.217Z,100.00
2022-08-03T02:05:05.621Z,100.00
2022-08-03T02:07:42.885Z,100.00
2022-08-03T02:10:14.454Z,100.00
2022-08-03T02:12:50.979Z,100.00
2022-08-03T02:15:22.182Z,100.00
2022-08-03T02:17:56.428Z,100.00
2022-08-03T02:20:27.907Z,100.00
2022-08-03T02:22:57.582Z,100.00
2022-08-03T02:25:27.331Z,100.00
2022-08-03T02:28:01.248Z,100.00
2022-08-03T02:30:37.953Z,100.00
2022-08-03T02:33:15.153Z,100.00
2022-08-03T02:35:46.547Z,100.00
2022-08-03T02:38:16.892Z,100.00
2022-08-03T02:40:48.953Z,100.00
2022-08-03T02:43:22.953Z,100.00
2022-08-03T02:45:54.144Z,100.00
2022-08-03T02:48:31.723Z,100.00
2022-08-03T02:51:04.452Z,100.00
2022-08-03T02:53:35.568Z,100.00
2022-08-03T02:56:06.662Z,100.00
2022-08-03T02:58:36.863Z,100.00
2022-08-03T03:01:06.581Z,100.00
2022-08-03T03:03:44.682Z,100.00
2022-08-03T03:06:16.300Z,100.00
2022-08-03T03:08:50.407Z,100.00
2022-08-03T03:11:23.654Z,100.00
2022-08-03T03:13:54.514Z,100.00
2022-08-03T03:16:25.198Z,100.00
2022-08-03T03:18:58.110Z,100.00
2022-08-03T03:21:29.533Z,100.00
2022-08-03T03:23:59.740Z,100.00
2022-08-03T03:26:29.777Z,100.00
2022-08-03T03:28:59.606Z,100.00
2022-08-03T03:31:29.078Z,100.00
2022-08-03T03:34:02.468Z,100.00
2022-08-03T03:36:31.964Z,100.00
2022-08-03T03:39:15.989Z,100.00
2022-08-03T03:41:46.142Z,100.00
2022-08-03T03:44:16.167Z,100.00
2022-08-03T03:46:45.831Z,100.00
2022-08-03T03:49:18.137Z,100.00
2022-08-03T03:51:47.636Z,100.00
2022-08-03T03:54:17.130Z,100.00
2022-08-03T03:56:46.550Z,100.00
2022-08-03T03:59:16.104Z,100.00
2022-08-03T04:01:45.670Z,100.00
2022-08-03T04:04:30.222Z,100.00
2022-08-03T04:07:12.139Z,100.00
2022-08-03T04:09:56.738Z,100.00
2022-08-03T04:12:31.974Z,100.00
2022-08-03T04:15:03.798Z,100.00
2022-08-03T04:17:35.334Z,100.00
2022-08-03T04:20:09.290Z,100.00
2022-08-03T04:22:40.355Z,100.00
2022-08-03T04:25:13.189Z,100.00
2022-08-03T04:27:45.123Z,100.00
2022-08-03T04:30:38.856Z,100.00
2022-08-03T04:33:09.714Z,100.00
2022-08-03T04:36:02.202Z,100.00
2022-08-03T04:38:35.713Z,100.00
2022-08-03T04:41:05.453Z,100.00
2022-08-03T04:43:36.355Z,100.00
2022-08-03T04:46:06.874Z,100.00
2022-08-03T04:48:38.069Z,100.00
2022-08-03T04:51:11.011Z,100.00
2022-08-03T04:53:40.622Z,100.00
2022-08-03T04:56:11.098Z,100.00
2022-08-03T04:58:40.554Z,100.00
2022-08-03T05:01:10.440Z,100.00
2022-08-03T05:03:40.537Z,100.00
2022-08-03T05:06:12.797Z,100.00
2022-08-03T05:08:47.237Z,100.00
2022-08-03T05:11:18.307Z,100.00
2022-08-03T05:13:48.613Z,100.00
2022-08-03T05:16:18.353Z,100.00
2022-08-03T05:18:47.823Z,100.00
2022-08-03T05:21:19.907Z,100.00
2022-08-03T05:23:49.341Z,100.00
2022-08-03T05:26:18.785Z,100.00
2022-08-03T05:28:50.670Z,100.00
2022-08-03T05:31:20.677Z,100.00
2022-08-03T05:33:50.116Z,100.00
2022-08-03T05:36:22.246Z,100.00
2022-08-03T05:38:51.694Z,100.00
2022-08-03T05:41:36.581Z,100.00
2022-08-03T05:44:07.793Z,100.00
2022-08-03T05:46:37.352Z,100.00
2022-08-03T05:49:07.373Z,100.00
2022-08-03T05:51:39.849Z,100.00
2022-08-03T05:54:09.365Z,100.00
2022-08-03T05:56:41.064Z,100.00
2022-08-03T05:59:35.830Z,100.00
2022-08-03T06:01:59.954Z,100.00
2022-08-03T06:04:29.530Z,100.00
2022-08-03T06:07:01.519Z,100.00
2022-08-03T06:09:31.828Z,100.00
2022-08-03T06:12:20.950Z,99.86
2022-08-03T06:14:50.370Z,98.93
2022-08-03T06:17:19.783Z,99.92
2022-08-03T06:19:49.304Z,96.60
2022-08-03T06:22:21.420Z,95.31
2022-08-03T06:24:53.305Z,96.55
2022-08-03T06:27:37.284Z,96.88
2022-08-03T06:30:08.326Z,96.96
2022-08-03T06:32:37.667Z,94.64
2022-08-03T06:35:08.033Z,92.51
2022-08-03T06:37:47.798Z,92.19
2022-08-03T06:40:21.905Z,91.44
2022-08-03T06:42:54.170Z,90.01
2022-08-03T06:45:23.831Z,88.39
2022-08-03T06:48:03.257Z,85.60
2022-08-03T06:50:33.029Z,86.10
2022-08-03T06:53:05.444Z,87.06
2022-08-03T06:55:35.165Z,81.57
2022-08-03T06:58:11.838Z,77.27
2022-08-03T07:00:41.194Z,79.68
2022-08-03T07:03:10.594Z,79.97
2022-08-03T07:05:40.057Z,78.68
2022-08-03T07:08:12.102Z,78.51
2022-08-03T07:10:41.557Z,78.62
2022-08-03T07:13:11.017Z,71.56
2022-08-03T07:15:54.954Z,69.98
2022-08-03T07:18:29.837Z,64.90
2022-08-03T07:20:59.660Z,65.73
2022-08-03T07:23:31.842Z,65.41
2022-08-03T07:26:01.264Z,63.93
2022-08-03T07:28:30.814Z,63.39
2022-08-03T07:31:00.564Z,63.20
2022-08-03T07:33:29.976Z,64.65
2022-08-03T07:36:08.711Z,66.62
2022-08-03T07:38:40.710Z,66.35
2022-08-03T07:41:10.223Z,65.32
2022-08-03T07:43:39.713Z,64.08
2022-08-03T07:46:09.644Z,65.54
2022-08-03T07:48:39.330Z,66.61
2022-08-03T07:51:09.486Z,62.84
2022-08-03T07:53:48.020Z,62.33
2022-08-03T07:56:17.965Z,62.37
2022-08-03T07:58:47.594Z,62.82
2022-08-03T08:01:17.281Z,60.03
2022-08-03T08:03:52.759Z,58.72
2022-08-03T08:06:24.080Z,57.42
2022-08-03T08:09:01.138Z,54.32
2022-08-03T08:11:30.962Z,54.78
2022-08-03T08:14:03.981Z,52.72
2022-08-03T08:16:33.748Z,51.92
2022-08-03T08:19:06.764Z,52.43
2022-08-03T08:21:53.227Z,51.96
2022-08-03T08:24:30.485Z,50.23
2022-08-03T08:27:04.073Z,50.78
2022-08-03T08:29:34.065Z,47.66
2022-08-03T08:32:04.777Z,47.07
2022-08-03T08:34:34.803Z,46.60
2022-08-03T08:37:04.293Z,45.56
2022-08-03T08:39:36.775Z,46.10
2022-08-03T08:42:12.165Z,47.05
2022-08-03T08:44:41.607Z,46.82
2022-08-03T08:47:12.349Z,45.55
2022-08-03T08:49:58.157Z,45.73
2022-08-03T08:52:33.820Z,44.97
2022-08-03T08:55:08.732Z,43.78
2022-08-03T08:57:43.183Z,43.94
2022-08-03T09:00:15.967Z,43.72
2022-08-03T09:02:46.670Z,42.74
2022-08-03T09:05:18.390Z,43.22
2022-08-03T09:07:49.583Z,43.17
2022-08-03T09:10:22.517Z,41.70
2022-08-03T09:12:54.330Z,39.57
2022-08-03T09:15:26.347Z,39.85
2022-08-03T09:17:57.206Z,39.28
2022-08-03T09:20:28.145Z,37.26
2022-08-03T09:23:00.138Z,38.01
2022-08-03T09:25:34.373Z,37.62
2022-08-03T09:28:12.317Z,37.53
2022-08-03T09:30:44.361Z,38.03
2022-08-03T09:33:16.530Z,37.82
2022-08-03T09:35:57.312Z,38.59
2022-08-03T09:38:28.777Z,38.79
2022-08-03T09:41:01.149Z,39.03
2022-08-03T09:43:30.822Z,36.80
2022-08-03T09:46:08.431Z,36.82
2022-08-03T09:48:38.435Z,37.20
2022-08-03T09:51:13.377Z,37.64
2022-08-03T09:54:01.799Z,36.76
2022-08-03T09:56:49.783Z,35.95
2022-08-03T09:59:27.484Z,36.37
2022-08-03T10:01:57.760Z,35.66
2022-08-03T10:04:27.612Z,35.41
2022-08-03T10:07:09.585Z,36.58
2022-08-03T10:09:39.751Z,37.78
2022-08-03T10:12:19.815Z,36.19
2022-08-03T10:14:51.161Z,36.45
2022-08-03T10:17:20.975Z,36.84
2022-08-03T10:19:51.669Z,36.65
2022-08-03T10:22:25.640Z,36.17
2022-08-03T10:24:58.881Z,35.87
2022-08-03T10:27:36.599Z,36.21
2022-08-03T10:30:09.627Z,36.62
2022-08-03T10:32:46.199Z,37.08
2022-08-03T10:35:20.125Z,35.45
2022-08-03T10:37:58.767Z,35.89
2022-08-03T10:43:29.019Z,35.61
2022-08-03T10:46:02.949Z,34.93
2022-08-03T10:48:35.636Z,36.15
2022-08-03T10:51:06.990Z,36.37
2022-08-03T10:53:44.042Z,35.57
2022-08-03T10:56:54.837Z,35.53
2022-08-03T11:00:06.732Z,35.23
2022-08-03T11:03:06.831Z,33.88
2022-08-03T11:05:38.959Z,35.57
2022-08-03T11:08:35.015Z,34.78
2022-08-03T11:11:28.622Z,35.67
2022-08-03T11:14:03.730Z,35.06
2022-08-03T11:16:41.020Z,34.63
2022-08-03T11:19:15.274Z,34.50
2022-08-03T11:22:00.234Z,34.69
2022-08-03T11:25:00.388Z,34.15
2022-08-03T11:27:34.779Z,33.68
2022-08-03T11:30:09.185Z,34.79
2022-08-03T11:32:57.248Z,34.58
2022-08-03T11:35:29.202Z,34.96
2022-08-03T11:38:10.389Z,34.41
2022-08-03T11:40:42.982Z,33.52
2022-08-03T11:43:35.214Z,33.50
2022-08-03T11:46:07.066Z,33.49
2022-08-03T11:49:09.495Z,33.12
2022-08-03T11:51:42.648Z,32.93
2022-08-03T11:54:12.052Z,33.98
2022-08-03T11:56:49.014Z,33.68
2022-08-03T11:59:22.664Z,33.45
2022-08-03T12:01:52.641Z,33.72
2022-08-03T12:04:24.696Z,34.09
2022-08-03T12:07:03.932Z,32.96
2022-08-03T12:09:36.264Z,32.72
2022-08-03T12:12:10.764Z,32.59
2022-08-03T12:14:50.762Z,33.77
2022-08-03T12:17:21.906Z,34.16
2022-08-03T12:19:54.316Z,33.44
2022-08-03T12:22:34.860Z,33.31
2022-08-03T12:25:04.568Z,32.95
2022-08-03T12:27:34.156Z,32.61
2022-08-03T12:30:05.095Z,33.54
2022-08-03T12:32:34.652Z,33.03
2022-08-03T12:35:07.528Z,32.71
2022-08-03T12:37:37.618Z,32.48
2022-08-03T12:40:13.292Z,33.40
2022-08-03T12:42:45.163Z,33.57
2022-08-03T12:45:21.606Z,33.85
2022-08-03T12:47:58.554Z,33.11
2022-08-03T12:50:32.849Z,33.68
2022-08-03T12:53:04.809Z,34.39
2022-08-03T12:55:56.337Z,34.57
2022-08-03T12:58:36.243Z,34.68
2022-08-03T13:01:13.910Z,35.07
2022-08-03T13:03:45.997Z,35.84
2022-08-03T13:06:27.554Z,34.55
2022-08-03T13:09:08.871Z,34.79
2022-08-03T13:11:55.765Z,35.36
2022-08-03T13:14:28.009Z,35.40
2022-08-03T13:16:57.458Z,36.04
2022-08-03T13:19:31.962Z,36.42
2022-08-03T13:22:05.045Z,35.64
2022-08-03T13:24:39.376Z,35.27
2022-08-03T13:28:01.404Z,35.56
2022-08-03T13:29:59.083Z,35.50
2022-08-03T13:32:28.931Z,35.23
2022-08-03T13:34:58.702Z,34.68
2022-08-03T13:37:32.597Z,34.80
2022-08-03T13:40:04.716Z,34.36
2022-08-03T13:42:36.472Z,33.99
2022-08-03T13:45:08.898Z,33.45
2022-08-03T13:47:38.522Z,33.46
2022-08-03T13:50:08.581Z,32.95
2022-08-03T13:52:41.124Z,32.87
2022-08-03T13:55:11.949Z,33.03
2022-08-03T13:58:03.293Z,32.92
2022-08-03T14:00:37.654Z,33.00
2022-08-03T14:03:14.173Z,33.51
2022-08-03T14:05:45.157Z,33.94
2022-08-03T14:08:17.181Z,33.94
2022-08-03T14:10:47.654Z,34.97
2022-08-03T14:13:18.338Z,35.50
2022-08-03T14:15:50.038Z,34.89
2022-08-03T14:18:28.925Z,34.99
2022-08-03T14:21:06.594Z,35.39
2022-08-03T14:23:42.884Z,34.15
2022-08-03T14:26:14.714Z,34.55
2022-08-03T14:28:49.849Z,35.37
2022-08-03T14:32:10.294Z,35.83
2022-08-03T14:34:08.998Z,35.73
2022-08-03T14:36:38.989Z,35.43
2022-08-03T14:39:11.007Z,36.01
2022-08-03T14:41:40.384Z,36.16
2022-08-03T14:44:10.008Z,36.92
2022-08-03T14:46:39.367Z,37.33
2022-08-03T14:50:38.729Z,37.05
2022-08-03T14:51:58.088Z,36.68
2022-08-03T14:54:31.396Z,37.46
2022-08-03T14:57:00.776Z,37.49
2022-08-03T14:59:55.788Z,37.99
2022-08-03T15:02:23.837Z,37.58
2022-08-03T15:04:53.638Z,38.17
2022-08-03T15:07:23.282Z,37.75
2022-08-03T15:09:55.415Z,37.64
2022-08-03T15:12:24.795Z,38.31
2022-08-03T15:14:54.262Z,38.40
2022-08-03T15:17:23.661Z,38.01
2022-08-03T15:20:01.316Z,38.47
2022-08-03T15:22:35.066Z,38.61
2022-08-03T15:26:32.397Z,38.84
2022-08-03T15:28:04.287Z,38.03
2022-08-03T15:30:36.947Z,37.59
2022-08-03T15:33:06.921Z,37.62
2022-08-03T15:35:36.397Z,38.40
2022-08-03T15:38:09.178Z,37.55
2022-08-03T15:40:41.897Z,37.86
2022-08-03T15:43:11.560Z,37.23
2022-08-03T15:45:41.987Z,37.87
2022-08-03T15:48:11.862Z,37.65
2022-08-03T15:50:41.427Z,38.02
2022-08-03T15:53:13.117Z,38.69
2022-08-03T15:55:45.109Z,37.99
2022-08-03T15:59:04.714Z,38.37
2022-08-03T16:01:05.223Z,38.51
2022-08-03T16:03:35.635Z,39.39
2022-08-03T16:06:06.284Z,38.53
2022-08-03T16:08:36.303Z,38.15
2022-08-03T16:11:08.517Z,38.28
2022-08-03T16:14:12.905Z,38.54
2022-08-03T16:16:27.721Z,38.48
2022-08-03T16:18:57.374Z,38.68
2022-08-03T16:21:26.764Z,39.54
2022-08-03T16:24:01.944Z,39.94
2022-08-03T16:26:34.934Z,39.94
2022-08-03T16:29:04.690Z,40.05
2022-08-03T16:31:57.897Z,39.80
2022-08-03T16:34:27.369Z,39.52
2022-08-03T16:36:57.354Z,39.84
2022-08-03T16:39:27.144Z,40.63
2022-08-03T16:42:01.258Z,40.75
2022-08-03T16:44:33.002Z,41.05
2022-08-03T16:47:02.629Z,41.11
2022-08-03T16:49:53.026Z,41.00
2022-08-03T16:52:21.536Z,41.69
2022-08-03T16:54:53.771Z,41.84
2022-08-03T16:57:56.629Z,42.68
2022-08-03T17:00:33.615Z,42.42
2022-08-03T17:03:16.395Z,42.44
2022-08-03T17:05:50.285Z,41.71
2022-08-03T17:08:27.159Z,42.30
2022-08-03T17:10:57.474Z,42.25
2022-08-03T17:13:40.004Z,42.65
2022-08-03T17:16:12.261Z,42.88
2022-08-03T17:18:54.156Z,42.54
2022-08-03T17:21:29.288Z,42.42
2022-08-03T17:24:04.893Z,41.86
2022-08-03T17:26:44.725Z,42.20
2022-08-03T17:29:23.208Z,42.16
2022-08-03T17:31:55.679Z,41.89
2022-08-03T17:34:28.595Z,41.76
2022-08-03T17:37:04.096Z,41.38
2022-08-03T17:39:57.824Z,41.26
2022-08-03T17:42:30.568Z,41.53
2022-08-03T17:45:07.313Z,42.67
2022-08-03T17:47:42.529Z,42.97
2022-08-03T17:50:25.640Z,43.55
2022-08-03T17:53:07.106Z,44.81
2022-08-03T17:55:55.443Z,45.94
2022-08-03T17:58:55.126Z,45.05
2022-08-03T18:02:00.569Z,44.42
2022-08-03T18:04:36.554Z,42.99
2022-08-03T18:07:12.895Z,44.22
2022-08-03T18:10:05.967Z,44.91
2022-08-03T18:12:47.614Z,47.85
2022-08-03T18:15:27.177Z,50.10
2022-08-03T18:18:10.498Z,50.19
2022-08-03T18:20:42.678Z,50.86
2022-08-03T18:23:25.344Z,51.20
2022-08-03T18:26:10.702Z,51.41
2022-08-03T18:28:42.123Z,51.36
2022-08-03T18:31:13.250Z,52.92
2022-08-03T18:34:18.376Z,55.05
2022-08-03T18:36:55.964Z,55.84
2022-08-03T18:39:26.309Z,53.06
2022-08-03T18:41:55.777Z,51.82
2022-08-03T18:44:38.023Z,53.60
2022-08-03T18:47:51.973Z,55.84
2022-08-03T18:50:31.300Z,59.15
2022-08-03T18:53:16.337Z,58.96
2022-08-03T18:56:01.698Z,61.17
2022-08-03T18:58:39.287Z,63.83
2022-08-03T19:04:20.691Z,67.13
2022-08-03T19:07:03.915Z,67.56
2022-08-03T19:09:48.129Z,68.98
2022-08-03T19:12:26.598Z,74.83
2022-08-03T19:15:04.174Z,76.51
2022-08-03T19:17:38.472Z,76.78
2022-08-03T19:20:10.396Z,79.01
2022-08-03T19:22:45.839Z,79.58
2022-08-03T19:25:15.864Z,80.48
2022-08-03T19:27:48.192Z,83.30
2022-08-03T19:30:31.473Z,82.80
2022-08-03T19:33:02.645Z,84.66
2022-08-03T19:35:52.047Z,85.23
2022-08-03T19:38:28.203Z,86.42
2022-08-03T19:41:00.333Z,88.45
2022-08-03T19:43:52.480Z,90.17
2022-08-03T19:49:16.145Z,93.08
2022-08-03T19:52:01.225Z,93.27
2022-08-03T19:54:45.749Z,94.70
2022-08-03T19:57:27.566Z,92.64
2022-08-03T19:59:58.388Z,91.48
2022-08-03T20:02:29.827Z,92.33
2022-08-03T20:05:00.730Z,94.09
2022-08-03T20:07:33.844Z,96.59
2022-08-03T20:10:09.382Z,97.67
2022-08-03T20:12:43.470Z,98.27
2022-08-03T20:15:13.284Z,98.88
2022-08-03T20:17:56.391Z,98.85
2022-08-03T20:20:30.087Z,99.29
2022-08-03T20:23:01.930Z,99.47
2022-08-03T20:25:38.681Z,100.00
2022-08-03T20:28:14.106Z,100.00
2022-08-03T20:30:47.106Z,100.00
2022-08-03T20:33:18.614Z,100.00
2022-08-03T20:35:49.681Z,100.00
2022-08-03T20:38:20.324Z,100.00
2022-08-03T20:40:59.563Z,100.00
2022-08-03T20:43:29.178Z,100.00
2022-08-03T20:46:31.113Z,100.00
2022-08-03T20:48:49.138Z,100.00
2022-08-03T20:51:19.999Z,100.00
2022-08-03T20:54:22.840Z,100.00
2022-08-03T20:57:04.286Z,100.00
2022-08-03T20:59:50.206Z,100.00
2022-08-03T21:02:30.478Z,100.00
2022-08-03T21:05:03.199Z,100.00
2022-08-03T21:08:05.624Z,100.00
2022-08-03T21:10:38.006Z,100.00
2022-08-03T21:13:08.339Z,67.75
2022-08-03T21:13:10.127Z,91.65
2022-08-03T21:16:06.884Z,100.00
2022-08-03T21:18:47.374Z,100.00
2022-08-03T21:21:20.373Z,100.00
2022-08-03T21:23:53.000Z,100.00
2022-08-03T21:26:24.825Z,100.00
2022-08-03T21:29:00.700Z,100.00
2022-08-03T21:31:30.207Z,100.00
2022-08-03T21:34:02.479Z,100.00
2022-08-03T21:36:35.012Z,100.00
2022-08-03T21:39:09.811Z,100.00
2022-08-03T21:41:42.135Z,100.00
2022-08-03T21:44:14.327Z,100.00
2022-08-03T21:46:45.355Z,100.00
2022-08-03T21:50:02.694Z,100.00
2022-08-03T21:52:07.427Z,100.00
2022-08-03T21:54:40.299Z,100.00
2022-08-03T21:57:16.845Z,100.00
2022-08-03T21:59:58.623Z,100.00
2022-08-03T22:02:32.313Z,100.00
2022-08-03T22:05:04.767Z,100.00
2022-08-03T22:07:34.784Z,100.00
2022-08-03T22:10:06.322Z,100.00
2022-08-03T22:12:36.607Z,100.00
2022-08-03T22:15:13.102Z,100.00
2022-08-03T22:17:55.859Z,100.00
2022-08-03T22:20:27.015Z,100.00
2022-08-03T22:22:58.432Z,100.00
2022-08-03T22:25:31.475Z,100.00
2022-08-03T22:28:03.561Z,100.00
2022-08-03T22:30:35.688Z,100.00
2022-08-03T22:33:11.474Z,100.00
2022-08-03T22:35:47.858Z,100.00
2022-08-03T22:38:18.723Z,100.00
2022-08-03T22:40:51.229Z,100.00
2022-08-03T22:43:24.286Z,100.00
2022-08-03T22:46:09.715Z,100.00
2022-08-03T22:48:41.877Z,100.00
2022-08-03T22:51:12.025Z,100.00
2022-08-03T22:53:42.124Z,100.00
2022-08-03T22:56:11.698Z,100.00
2022-08-03T22:58:41.172Z,100.00
2022-08-03T23:01:14.569Z,100.00
2022-08-03T23:03:59.804Z,100.00
2022-08-03T23:06:37.220Z,100.00
2022-08-03T23:09:08.912Z,100.00
2022-08-03T23:11:43.008Z,100.00
2022-08-03T23:14:17.847Z,100.00
2022-08-03T23:16:52.976Z,100.00
2022-08-03T23:19:25.631Z,100.00
2022-08-03T23:22:02.813Z,100.00
2022-08-03T23:24:36.241Z,100.00
2022-08-03T23:27:06.804Z,100.00
2022-08-03T23:29:37.485Z,100.00
2022-08-03T23:32:10.487Z,100.00
2022-08-03T23:34:54.743Z,100.00
2022-08-03T23:37:24.692Z,100.00
2022-08-03T23:39:55.777Z,100.00
2022-08-03T23:42:26.480Z,100.00
2022-08-03T23:44:59.452Z,100.00
2022-08-03T23:47:46.614Z,100.00
2022-08-03T23:50:17.667Z,100.00
2022-08-03T23:52:58.501Z,100.00
2022-08-03T23:55:41.676Z,100.00
2022-08-03T23:58:20.948Z,100.00
